Time;durP1;ratioP1;P1;durP2;ratioP2;P2;SDS_P1;SDS_P2;PMS_P1;PMS_P2;Temp;Humidity;BMP_temperature;BMP_pressure;BME280_temperature;BME280_humidity;BME280_pressure;Samples;Min_cycle;Max_cycle;Signal;HPM_P1;HPM_P2
2022/11/20 00:01:38;;;;;;;31.17;16.02;;;;;;;-2.09;100.00;101362.09;2614190;36;20042;-54
2022/11/20 00:04:06;;;;;;;28.17;15.35;;;;;;;-2.21;100.00;101376.47;2614844;36;20037;-55
2022/11/20 00:06:37;;;;;;;30.70;15.98;;;;;;;-2.23;100.00;101369.50;2615254;36;20041;-59
2022/11/20 00:09:06;;;;;;;32.63;16.83;;;;;;;-2.32;100.00;101360.06;2615067;36;20871;-55
2022/11/20 00:11:35;;;;;;;30.73;16.38;;;;;;;-2.36;100.00;101356.63;2632561;36;20060;-55
2022/11/20 00:14:04;;;;;;;33.78;16.13;;;;;;;-2.27;100.00;101344.97;2615948;31;20023;-55
2022/11/20 00:16:34;;;;;;;30.55;15.57;;;;;;;-2.24;100.00;101346.66;2615245;31;20054;-57
2022/11/20 00:19:05;;;;;;;28.83;15.43;;;;;;;-2.15;100.00;101344.66;2615863;36;20735;-57
2022/11/20 00:21:36;;;;;;;32.38;18.10;;;;;;;-2.33;100.00;101348.63;2614531;36;20046;-53
2022/11/20 00:24:05;;;;;;;37.88;20.20;;;;;;;-2.29;100.00;101346.81;2614793;36;20043;-59
2022/11/20 00:26:33;;;;;;;38.45;20.38;;;;;;;-2.29;100.00;101363.47;2614581;36;20057;-55
2022/11/20 00:29:03;;;;;;;37.10;20.15;;;;;;;-2.49;100.00;101350.84;2614462;36;20049;-60
2022/11/20 00:31:33;;;;;;;33.42;18.23;;;;;;;-2.44;100.00;101350.72;2611504;36;20034;-56
2022/11/20 00:34:01;;;;;;;25.50;15.73;;;;;;;-2.45;100.00;101353.41;2614216;36;20042;-59
2022/11/20 00:36:31;;;;;;;31.42;16.52;;;;;;;-2.47;100.00;101356.94;2613610;31;20034;-59
2022/11/20 00:39:02;;;;;;;31.80;16.17;;;;;;;-2.45;100.00;101358.66;2613045;31;20042;-55
2022/11/20 00:41:32;;;;;;;30.75;16.35;;;;;;;-2.55;100.00;101356.25;2613877;36;20608;-55
2022/11/20 00:44:00;;;;;;;;;;;;;;;-2.50;100.00;101357.00;2612784;36;20046;-57
2022/11/20 00:46:30;;;;;;;32.78;16.92;;;;;;;-2.55;100.00;101353.63;2613546;31;19954;-60
2022/11/20 00:48:58;;;;;;;32.00;16.33;;;;;;;-2.47;100.00;101345.53;2614539;36;20034;-55
2022/11/20 00:51:29;;;;;;;32.88;17.08;;;;;;;-2.41;100.00;101355.06;2613641;31;20038;-57
2022/11/20 00:53:59;;;;;;;34.05;17.45;;;;;;;-2.52;100.00;101353.56;2612124;31;20451;-56
2022/11/20 00:56:31;;;;;;;31.13;16.90;;;;;;;-2.70;100.00;101357.50;2610911;36;20034;-58
2022/11/20 00:59:02;;;;;;;30.25;16.95;;;;;;;-2.70;100.00;101354.88;2611992;36;20038;-55
2022/11/20 01:01:31;;;;;;;34.22;18.67;;;;;;;-2.66;100.00;101356.53;2610918;36;20455;-56
2022/11/20 01:04:02;;;;;;;51.38;19.23;;;;;;;-2.64;100.00;101356.50;2629278;36;20035;-55
2022/11/20 01:06:32;;;;;;;34.78;17.63;;;;;;;-2.59;100.00;101352.00;2611361;36;20030;-55
2022/11/20 01:09:04;;;;;;;37.45;17.95;;;;;;;-2.50;100.00;101348.25;2611230;36;20034;-58
2022/11/20 01:11:39;;;;;;;30.20;16.67;;;;;;;-2.54;100.00;101358.00;2611583;31;20118;-56
2022/11/20 01:14:10;;;;;;;31.83;16.90;;;;;;;-2.49;100.00;101350.84;2613944;36;20045;-56
2022/11/20 01:16:40;;;;;;;29.50;16.23;;;;;;;-2.59;100.00;101344.09;2614090;36;20439;-56
2022/11/20 01:19:12;;;;;;;34.83;17.33;;;;;;;-2.65;100.00;101336.31;2612504;36;20081;-55
2022/11/20 01:21:42;;;;;;;33.53;18.40;;;;;;;-2.68;100.00;101333.75;2614087;36;20407;-59
2022/11/20 01:24:14;;;;;;;35.38;18.23;;;;;;;-2.71;100.00;101334.72;2614697;31;20030;-58
2022/11/20 01:26:46;;;;;;;34.17;18.00;;;;;;;-2.82;100.00;101329.72;2611950;36;20107;-58
2022/11/20 01:29:17;;;;;;;34.85;17.60;;;;;;;-2.63;100.00;101323.13;2613486;36;20037;-58
2022/11/20 01:31:47;;;;;;;33.35;18.38;;;;;;;-2.66;100.00;101313.53;2613093;36;20030;-53
2022/11/20 01:34:16;;;;;;;;;;;;;;;-2.68;100.00;101317.94;2612874;36;20149;-59
2022/11/20 01:36:45;;;;;;;31.77;16.27;;;;;;;-2.73;100.00;101306.69;2610928;36;20443;-59
2022/11/20 01:39:15;;;;;;;32.53;17.45;;;;;;;-2.77;100.00;101299.75;2612791;36;20041;-57
2022/11/20 01:44:48;;;;;;;30.65;15.43;;;;;;;-2.83;100.00;101306.03;2612371;36;20031;-53
2022/11/20 01:47:20;;;;;;;25.70;14.95;;;;;;;-2.89;100.00;101298.31;2613547;36;20467;-56
2022/11/20 01:49:52;;;;;;;28.83;15.38;;;;;;;-2.91;100.00;101293.09;2615009;36;20038;-55
2022/11/20 01:52:25;;;;;;;24.95;14.20;;;;;;;-2.89;100.00;101291.25;2614986;31;20556;-58
2022/11/20 01:54:58;;;;;;;24.23;14.23;;;;;;;-2.92;100.00;101295.75;2614081;36;20026;-60
2022/11/20 01:57:34;;;;;;;26.73;15.27;;;;;;;-2.99;100.00;101289.75;2614931;36;20056;-57
2022/11/20 02:00:09;;;;;;;26.67;14.52;;;;;;;-2.91;100.00;101290.44;2615179;36;20558;-57
2022/11/20 02:02:39;;;;;;;25.58;13.27;;;;;;;-2.85;100.00;101292.06;2614984;36;20092;-58
2022/11/20 02:05:17;;;;;;;25.85;14.27;;;;;;;-2.85;100.00;101292.91;2614186;36;20102;-54
2022/11/20 02:07:46;;;;;;;26.02;13.35;;;;;;;-2.91;100.00;101293.09;2614918;36;20041;-60
2022/11/20 02:10:15;;;;;;;26.83;14.88;;;;;;;-2.86;100.00;101291.19;2614965;36;20034;-55
2022/11/20 02:15:38;;;;;;;24.50;13.38;;;;;;;-2.88;100.00;101293.00;2612978;36;20539;-56
2022/11/20 02:18:08;;;;;;;24.33;13.30;;;;;;;-2.89;100.00;101291.25;2613344;36;20125;-60
2022/11/20 02:20:36;;;;;;;28.42;13.02;;;;;;;-2.90;100.00;101283.41;2614227;31;20034;-59
2022/11/20 02:23:11;;;;;;;26.75;12.70;;;;;;;-2.82;100.00;101284.94;2614772;36;20038;-55
2022/11/20 02:25:44;;;;;;;21.02;13.18;;;;;;;-2.89;100.00;101290.41;2614363;36;20567;-59
2022/11/20 02:28:12;;;;;;;21.80;12.30;;;;;;;-3.03;100.00;101288.13;2615186;36;20034;-59
2022/11/20 02:30:41;;;;;;;23.00;12.82;;;;;;;-3.02;100.00;101297.75;2613874;36;20041;-56
2022/11/20 02:33:09;;;;;;;22.00;12.07;;;;;;;-3.09;100.00;101289.16;2615269;31;20034;-56
2022/11/20 02:35:48;;;;;;;22.65;11.70;;;;;;;-3.01;100.00;101292.44;2614912;36;20034;-58
2022/11/20 02:38:17;;;;;;;;;;;;;;;-2.93;100.00;101287.00;2614990;36;20563;-56
2022/11/20 02:40:48;;;;;;;26.25;12.20;;;;;;;-2.97;100.00;101295.88;2613839;36;19957;-52
2022/11/20 02:43:18;;;;;;;19.92;10.88;;;;;;;-3.01;100.00;101286.31;2613366;36;20059;-56
2022/11/20 02:45:47;;;;;;;18.98;10.98;;;;;;;-2.98;100.00;101286.25;2612156;36;20469;-56
2022/11/20 02:48:15;;;;;;;21.67;10.45;;;;;;;-3.00;100.00;101282.78;2611382;36;20058;-57
2022/11/20 02:50:43;;;;;;;21.17;11.00;;;;;;;-2.96;100.00;101288.84;2612099;36;20034;-57
2022/11/20 02:53:12;;;;;;;23.83;11.80;;;;;;;-3.01;100.00;101291.59;2612335;36;20069;-57
2022/11/20 02:55:40;;;;;;;20.38;10.27;;;;;;;-2.99;100.00;101279.22;2614033;36;20042;-56
2022/11/20 02:58:11;;;;;;;19.30;10.70;;;;;;;-3.11;100.00;101280.41;2614728;36;20170;-57
2022/11/20 03:00:39;;;;;;;21.20;11.18;;;;;;;-3.14;100.00;101282.25;2612304;36;20057;-53
2022/11/20 03:03:07;;;;;;;18.00;10.07;;;;;;;-3.11;100.00;101276.91;2612374;36;20030;-52
2022/11/20 03:05:42;;;;;;;20.13;10.70;;;;;;;-3.18;100.00;101269.19;2612581;54;20038;-57
2022/11/20 03:08:10;;;;;;;18.30;10.30;;;;;;;-3.23;100.00;101265.78;2611047;36;20029;-59
2022/11/20 03:10:38;;;;;;;20.77;11.55;;;;;;;-3.24;100.00;101264.06;2614250;36;20027;-58
2022/11/20 03:13:07;;;;;;;20.35;10.93;;;;;;;-3.15;100.00;101262.09;2613118;36;20042;-58
2022/11/20 03:15:38;;;;;;;20.33;10.38;;;;;;;-3.23;100.00;101255.25;2613987;31;20041;-56
2022/11/20 03:18:07;;;;;;;18.48;10.10;;;;;;;-3.24;100.00;101256.19;2614478;36;20736;-57
2022/11/20 03:20:36;;;;;;;23.08;10.88;;;;;;;-3.20;100.00;101255.16;2614218;36;20455;-59
2022/11/20 03:23:04;;;;;;;19.23;11.07;;;;;;;-3.19;100.00;101249.00;2614136;36;20030;-59
2022/11/20 03:25:32;;;;;;;22.40;11.13;;;;;;;-3.27;100.00;101248.31;2631411;36;20026;-59
2022/11/20 03:28:01;;;;;;;18.58;9.95;;;;;;;-3.25;100.00;101243.06;2613943;36;20045;-55
2022/11/20 03:30:29;;;;;;;21.92;10.40;;;;;;;-3.22;100.00;101241.19;2613919;36;20436;-59
2022/11/20 03:33:00;;;;;;;19.17;10.60;;;;;;;-3.28;100.00;101241.34;2614762;36;20039;-53
2022/11/20 03:35:28;;;;;;;18.65;10.75;;;;;;;-3.28;100.00;101238.72;2613221;36;20022;-58
2022/11/20 03:37:56;;;;;;;18.70;10.18;;;;;;;-3.34;100.00;101236.25;2612750;36;20760;-57
2022/11/20 03:40:25;;;;;;;18.50;9.55;;;;;;;-3.37;100.00;101233.69;2614910;36;20046;-59
2022/11/20 03:42:53;;;;;;;16.33;9.27;;;;;;;-3.29;100.00;101236.97;2614480;36;20027;-58
2022/11/20 03:45:21;;;;;;;19.30;10.05;;;;;;;-3.36;100.00;101235.41;2614553;36;20035;-57
2022/11/20 03:47:51;;;;;;;18.45;10.15;;;;;;;-3.29;100.00;101229.09;2612842;36;20122;-53
2022/11/20 03:50:22;;;;;;;19.58;10.20;;;;;;;-3.28;100.00;101225.56;2614947;36;20046;-51
2022/11/20 03:52:50;;;;;;;19.27;10.35;;;;;;;-3.26;100.00;101221.09;2614865;36;20034;-60
2022/11/20 03:55:19;;;;;;;17.80;9.35;;;;;;;-3.28;100.00;101222.94;2615388;36;20431;-59
2022/11/20 03:57:47;;;;;;;19.23;9.83;;;;;;;-3.25;100.00;101220.22;2614230;36;20033;-56
2022/11/20 04:00:16;;;;;;;14.93;8.95;;;;;;;-3.19;100.00;101214.78;2615894;31;20035;-56
2022/11/20 04:02:44;;;;;;;20.45;10.65;;;;;;;-3.17;100.00;101223.50;2614638;36;20034;-55
2022/11/20 04:05:13;;;;;;;20.35;10.05;;;;;;;-3.28;100.00;101230.81;2615343;36;20034;-55
2022/11/20 04:07:44;;;;;;;18.90;9.52;;;;;;;-3.33;100.00;101226.56;2615828;36;20026;-57
2022/11/20 04:10:12;;;;;;;18.73;9.95;;;;;;;-3.44;100.00;101216.31;2613762;36;20018;-56
2022/11/20 04:12:40;;;;;;;17.40;9.38;;;;;;;-3.49;100.00;101215.56;2615525;36;20035;-57
2022/11/20 04:15:10;;;;;;;18.00;9.85;;;;;;;-3.37;100.00;101218.75;2615164;36;20030;-57
2022/11/20 04:17:38;;;;;;;16.75;10.15;;;;;;;-3.31;100.00;101212.47;2615433;36;20041;-57
2022/11/20 04:20:08;;;;;;;16.25;9.85;;;;;;;-3.43;100.00;101218.03;2614444;36;20041;-56
2022/11/20 04:22:36;;;;;;;17.70;9.60;;;;;;;-3.37;100.00;101217.91;2615271;36;20042;-55
2022/11/20 04:25:07;;;;;;;16.42;9.15;;;;;;;-3.39;100.00;101217.91;2615559;36;20435;-59
2022/11/20 04:27:36;;;;;;;15.95;8.60;;;;;;;-3.49;100.00;101210.28;2615789;36;20022;-52
2022/11/20 04:30:04;;;;;;;17.75;9.43;;;;;;;-3.46;100.00;101215.47;2615432;31;20038;-58
2022/11/20 04:32:33;;;;;;;18.33;10.10;;;;;;;-3.50;100.00;101217.34;2615293;36;20041;-59
2022/11/20 04:35:01;;;;;;;16.70;9.55;;;;;;;-3.52;100.00;101227.00;2615330;36;20065;-56
2022/11/20 04:37:31;;;;;;;17.65;10.00;;;;;;;-3.59;100.00;101226.31;2613820;36;20038;-57
2022/11/20 04:39:59;;;;;;;17.45;9.38;;;;;;;-3.53;100.00;101220.91;2615671;36;20042;-59
2022/11/20 04:42:30;;;;;;;17.45;9.15;;;;;;;-3.49;100.00;101223.44;2615219;36;20057;-51
2022/11/20 04:44:59;;;;;;;14.43;8.18;;;;;;;-3.52;100.00;101217.38;2614446;31;20030;-56
2022/11/20 04:47:28;;;;;;;16.15;8.85;;;;;;;-3.57;100.00;101218.38;2611490;36;20547;-57
2022/11/20 04:49:56;;;;;;;16.92;9.63;;;;;;;-3.64;100.00;101217.66;2612064;36;20463;-57
2022/11/20 04:52:24;;;;;;;17.73;8.50;;;;;;;-3.61;100.00;101212.31;2611420;36;20042;-56
2022/11/20 04:54:53;;;;;;;18.30;9.60;;;;;;;-3.54;100.00;101208.63;2613038;36;20558;-55
2022/11/20 04:57:22;;;;;;;19.20;9.60;;;;;;;-3.53;100.00;101220.91;2612276;31;20121;-58
2022/11/20 04:59:53;;;;;;;16.83;9.52;;;;;;;-3.66;100.00;101214.19;2612444;36;20442;-59
2022/11/20 05:02:21;;;;;;;18.17;9.68;;;;;;;-3.73;100.00;101215.25;2611228;31;20045;-60
2022/11/20 05:04:49;;;;;;;15.27;9.00;;;;;;;-3.64;100.00;101209.75;2612481;36;20023;-55
2022/11/20 05:07:18;;;;;;;17.05;9.13;;;;;;;-3.60;100.00;101198.28;2612526;31;20034;-56
2022/11/20 05:09:46;;;;;;;18.27;9.95;;;;;;;-3.55;100.00;101198.16;2614198;36;20030;-55
2022/11/20 05:12:15;;;;;;;18.67;9.70;;;;;;;-3.67;100.00;101190.56;2613240;36;20041;-59
2022/11/20 05:14:43;;;;;;;17.90;8.73;;;;;;;-3.76;100.00;101187.25;2615758;36;20436;-56
2022/11/20 05:17:15;;;;;;;15.80;8.90;;;;;;;-3.73;100.00;101194.19;2613784;36;20038;-60
2022/11/20 05:19:43;;;;;;;15.00;8.95;;;;;;;-3.67;100.00;101191.41;2616563;31;20045;-56
2022/11/20 05:22:11;;;;;;;17.48;9.98;;;;;;;-3.59;100.00;101178.97;2613262;36;20041;-53
2022/11/20 05:24:40;;;;;;;15.98;9.20;;;;;;;-3.69;100.00;101187.97;2615621;36;20045;-55
2022/11/20 05:27:09;;;;;;;19.02;10.02;;;;;;;-3.66;100.00;101187.03;2613862;36;20026;-57
2022/11/20 05:29:37;;;;;;;17.35;9.25;;;;;;;-3.73;100.00;101184.53;2614382;36;20034;-56
2022/11/20 05:32:09;;;;;;;17.58;8.55;;;;;;;-3.70;100.00;101188.88;2613652;36;20030;-56
2022/11/20 05:34:40;;;;;;;18.08;9.80;;;;;;;-3.72;100.00;101182.78;2615364;36;20048;-59
2022/11/20 05:37:08;;;;;;;19.80;9.73;;;;;;;-3.83;100.00;101172.50;2614338;36;20156;-59
2022/11/20 05:39:36;;;;;;;16.60;9.43;;;;;;;-3.87;100.00;101166.47;2612857;36;20062;-57
2022/11/20 05:44:46;;;;;;;17.80;9.55;;;;;;;-3.78;100.00;101167.16;2614866;36;20547;-53
2022/11/20 05:47:14;;;;;;;19.05;9.98;;;;;;;-3.84;100.00;101172.53;2615060;36;20392;-56
2022/11/20 05:49:45;;;;;;;17.80;9.43;;;;;;;-3.88;100.00;101167.38;2615072;36;20069;-57
2022/11/20 05:52:13;;;;;;;18.45;9.07;;;;;;;-3.96;100.00;101166.69;2614572;36;20034;-56
2022/11/20 05:54:41;;;;;;;18.05;10.20;;;;;;;-3.90;100.00;101161.28;2615716;36;20034;-57
2022/11/20 05:57:10;;;;;;;17.98;8.75;;;;;;;-3.82;100.00;101174.25;2614088;36;20034;-58
2022/11/20 05:59:38;;;;;;;17.30;9.07;;;;;;;-3.90;100.00;101176.19;2614763;36;20026;-56
2022/11/20 06:02:06;;;;;;;17.70;8.80;;;;;;;-3.93;100.00;101173.63;2614616;31;20030;-55
2022/11/20 06:04:35;;;;;;;19.05;10.10;;;;;;;-3.84;100.00;101169.91;2614986;36;20042;-58
2022/11/20 06:07:07;;;;;;;17.55;8.93;;;;;;;-3.98;100.00;101186.03;2614186;36;20034;-59
2022/11/20 06:09:35;;;;;;;19.88;10.70;;;;;;;-4.01;100.00;101186.97;2614061;36;20038;-56
2022/11/20 06:12:04;;;;;;;18.37;9.70;;;;;;;-3.97;100.00;101182.50;2614163;36;20038;-54
2022/11/20 06:14:32;;;;;;;20.02;10.10;;;;;;;-3.83;100.00;101190.06;2616151;36;20704;-55
2022/11/20 06:17:01;;;;;;;18.58;9.95;;;;;;;-3.91;100.00;101204.25;2615109;36;20022;-55
2022/11/20 06:19:29;;;;;;;19.13;9.43;;;;;;;-3.95;100.00;101199.09;2616308;36;20057;-56
2022/11/20 06:21:57;;;;;;;19.20;9.82;;;;;;;-3.90;100.00;101194.59;2615169;31;20023;-57
2022/11/20 06:24:28;;;;;;;18.75;10.00;;;;;;;-3.89;100.00;101191.94;2614974;36;20039;-57
2022/11/20 06:26:56;;;;;;;16.50;9.13;;;;;;;-4.10;100.00;101197.69;2614840;36;20551;-58
2022/11/20 06:29:25;;;;;;;17.70;9.15;;;;;;;-4.01;100.00;101194.00;2615142;36;20027;-57
2022/11/20 06:31:53;;;;;;;15.57;8.55;;;;;;;-3.98;100.00;101202.66;2612212;36;20041;-58
2022/11/20 06:34:22;;;;;;;17.60;9.55;;;;;;;-4.03;100.00;101198.41;2615464;36;20023;-57
2022/11/20 06:36:50;;;;;;;18.27;9.95;;;;;;;-4.01;100.00;101196.63;2613805;36;20045;-52
2022/11/20 06:39:18;;;;;;;19.05;9.52;;;;;;;-4.05;100.00;101187.91;2615159;31;20102;-52
2022/11/20 06:41:49;;;;;;;17.65;9.95;;;;;;;-4.09;100.00;101189.78;2612300;36;20363;-58
2022/11/20 06:44:18;;;;;;;16.00;9.13;;;;;;;-4.07;100.00;101197.63;2612549;36;20038;-57
2022/11/20 06:46:46;;;;;;;17.35;8.93;;;;;;;-4.06;100.00;101199.34;2612317;36;20034;-56
2022/11/20 06:49:14;;;;;;;17.95;10.48;;;;;;;-4.13;100.00;101203.88;2613002;36;20038;-58
2022/11/20 06:51:43;;;;;;;20.65;10.75;;;;;;;-4.20;100.00;101197.03;2613005;36;20030;-52
2022/11/20 06:54:11;;;;;;;17.65;10.00;;;;;;;-4.20;100.00;101193.53;2616530;31;20030;-56
2022/11/20 06:56:39;;;;;;;20.13;10.70;;;;;;;-4.13;100.00;101197.75;2616135;36;20030;-59
2022/11/20 06:59:12;;;;;;;19.77;11.35;;;;;;;-4.10;100.00;101189.81;2613749;31;20035;-60
2022/11/20 07:01:40;;;;;;;21.88;10.85;;;;;;;-4.17;100.00;101190.84;2612248;36;20748;-57
2022/11/20 07:04:09;;;;;;;18.55;9.95;;;;;;;-4.22;100.00;101189.16;2612897;36;20042;-54
2022/11/20 07:06:37;;;;;;;20.13;10.60;;;;;;;-4.04;100.00;101181.78;2612691;36;20035;-56
2022/11/20 07:09:06;;;;;;;18.65;10.10;;;;;;;-3.96;100.00;101184.22;2611336;36;20038;-56
2022/11/20 07:11:34;;;;;;;26.70;9.63;;;;;;;-4.08;100.00;101185.38;2614826;36;20026;-55
2022/11/20 07:14:02;;;;;;;19.13;10.38;;;;;;;-4.18;100.00;101184.72;2616026;36;20428;-55
2022/11/20 07:16:33;;;;;;;20.70;10.13;;;;;;;-4.06;100.00;101181.81;2614664;31;20511;-56
2022/11/20 07:19:02;;;;;;;19.25;9.35;;;;;;;-3.98;100.00;101170.25;2615184;36;20034;-59
2022/11/20 07:21:30;;;;;;;19.07;9.77;;;;;;;-3.94;100.00;101170.16;2615633;36;20045;-58
2022/11/20 07:23:58;;;;;;;18.35;9.95;;;;;;;-3.84;100.00;101162.03;2615995;36;20034;-58
2022/11/20 07:26:27;;;;;;;17.85;10.23;;;;;;;-3.88;100.00;101167.38;2614609;36;20590;-52
2022/11/20 07:28:55;;;;;;;20.42;9.80;;;;;;;-3.83;100.00;101166.41;2615507;36;20049;-51
2022/11/20 07:31:24;;;;;;;22.58;10.32;;;;;;;-3.80;100.00;101166.31;2614659;36;20542;-57
2022/11/20 07:33:58;;;;;;;22.48;11.75;;;;;;;-3.96;100.00;101169.31;2615107;47;20023;-59
2022/11/20 07:36:26;;;;;;;19.77;10.20;;;;;;;-3.75;100.00;101157.41;2614164;36;20034;-57
2022/11/20 07:38:55;;;;;;;21.08;10.70;;;;;;;-3.58;100.00;101153.50;2615660;36;20034;-55
2022/11/20 07:41:23;;;;;;;20.88;11.20;;;;;;;-3.45;100.00;101156.69;2615244;36;20035;-58
2022/11/20 07:43:51;;;;;;;26.90;13.32;;;;;;;-3.43;100.00;101153.13;2616026;31;20034;-55
2022/11/20 07:46:20;;;;;;;21.65;11.05;;;;;;;-3.35;100.00;101152.91;2614737;36;20030;-53
2022/11/20 07:48:48;;;;;;;21.00;11.52;;;;;;;-3.33;100.00;101153.72;2616116;31;20396;-57
2022/11/20 07:51:19;;;;;;;25.52;12.77;;;;;;;-3.26;100.00;101150.03;2615105;36;20057;-59
2022/11/20 07:53:47;;;;;;;22.65;11.05;;;;;;;-3.07;100.00;101149.56;2615648;31;20031;-58
2022/11/20 07:56:17;;;;;;;23.90;11.63;;;;;;;-3.08;100.00;101142.56;2615001;36;20023;-59
2022/11/20 07:58:46;;;;;;;23.48;10.73;;;;;;;-3.01;100.00;101147.59;2614710;36;20039;-55
2022/11/20 08:01:14;;;;;;;22.90;10.32;;;;;;;-2.83;100.00;101150.63;2616505;31;20026;-59
2022/11/20 08:03:42;;;;;;;19.77;10.70;;;;;;;-2.94;100.00;101153.56;2616454;36;20443;-56
2022/11/20 08:06:11;;;;;;;23.50;10.77;;;;;;;-2.78;100.00;101145.22;2615232;36;20447;-57
2022/11/20 08:08:42;;;;;;;23.23;11.15;;;;;;;-2.71;100.00;101150.31;2616690;36;20034;-55
2022/11/20 08:16:31;;;;;;;27.00;12.00;;;;;;;-2.65;100.00;101144.84;2615357;36;20035;-57
2022/11/20 08:19:00;;;;;;;27.52;12.48;;;;;;;-2.53;100.00;101140.97;2615446;36;20041;-54
2022/11/20 08:21:28;;;;;;;25.23;12.43;;;;;;;-2.46;100.00;101136.38;2615166;36;20022;-57
2022/11/20 08:23:59;;;;;;;23.98;12.32;;;;;;;-2.41;100.00;101138.91;2616494;36;20069;-58
2022/11/20 08:26:28;;;;;;;30.15;14.02;;;;;;;-2.31;100.00;101135.94;2614558;36;20033;-59
2022/11/20 08:28:57;;;;;;;27.02;13.45;;;;;;;-2.04;100.00;101132.47;2615793;36;20031;-58
2022/11/20 08:31:27;;;;;;;23.58;12.75;;;;;;;-1.79;100.00;101137.81;2612938;36;20039;-59
2022/11/20 08:33:55;;;;;;;;;;;;;;;-1.65;100.00;101134.72;2616006;36;20022;-55
2022/11/20 08:36:25;;;;;;;31.13;14.48;;;;;;;-1.68;100.00;101121.63;2614642;36;19997;-60
2022/11/20 08:38:55;;;;;;;28.05;14.50;;;;;;;-1.43;100.00;101119.00;2614553;36;20047;-55
2022/11/20 08:41:26;;;;;;;28.88;14.55;;;;;;;-1.33;100.00;101117.78;2613245;36;20427;-54
2022/11/20 08:43:57;;;;;;;27.92;14.77;;;;;;;-1.41;100.00;101112.78;2613920;36;20038;-57
2022/11/20 08:46:27;;;;;;;30.52;14.93;;;;;;;-1.30;100.00;101115.03;2614101;31;20034;-56
2022/11/20 08:48:55;;;;;;;29.38;14.32;;;;;;;-1.12;100.00;101113.53;2615154;36;20030;-57
2022/11/20 08:51:24;;;;;;;30.87;15.33;;;;;;;-0.93;100.00;101105.81;2614325;36;20038;-58
2022/11/20 08:53:52;;;;;;;31.10;14.25;;;;;;;-0.88;100.00;101110.91;2618885;36;20333;-58
2022/11/20 08:56:20;;;;;;;27.38;13.32;;;;;;;-0.80;100.00;101119.41;2614171;36;20034;-53
2022/11/20 08:58:52;;;;;;;30.92;15.40;;;;;;;-0.79;100.00;101115.00;2615601;36;20034;-57
2022/11/20 09:01:21;;;;;;;25.15;13.85;;;;;;;-0.72;100.00;101116.50;2614968;36;20039;-54
2022/11/20 09:03:49;;;;;;;28.10;15.63;;;;;;;-0.36;100.00;101119.50;2616285;36;20034;-59
2022/11/20 09:06:18;;;;;;;29.80;14.73;;;;;;;-0.40;100.00;101112.63;2614559;36;20034;-61
2022/11/20 09:08:47;;;;;;;26.45;13.65;;;;;;;-0.13;100.00;101115.09;2615176;36;20050;-56
2022/11/20 09:11:15;;;;;;;33.08;15.82;;;;;;;-0.04;100.00;101116.53;2613870;36;20038;-56
2022/11/20 09:13:43;;;;;;;29.15;14.30;;;;;;;0.06;100.00;101109.94;2611638;36;20030;-59
2022/11/20 09:16:14;;;;;;;28.88;14.93;;;;;;;0.05;100.00;101115.28;2611201;36;20422;-55
2022/11/20 09:18:43;;;;;;;25.58;13.77;;;;;;;0.10;100.00;101105.38;2609166;36;20061;-51
2022/11/20 09:21:13;;;;;;;25.52;13.50;;;;;;;-0.05;100.00;101107.69;2605657;36;20022;-56
2022/11/20 09:23:42;;;;;;;26.23;14.60;;;;;;;0.15;100.00;101095.47;2613077;36;20030;-53
2022/11/20 09:26:14;;;;;;;24.90;12.55;;;;;;;0.25;100.00;101087.97;2611622;36;20031;-57
2022/11/20 09:28:43;;;;;;;25.88;13.65;;;;;;;0.39;100.00;101082.97;2610738;36;20038;-55
2022/11/20 09:31:24;;;;;;;28.67;14.77;;;;;;;0.56;100.00;101081.38;2613864;36;20053;-56
2022/11/20 09:33:52;;;;;;;27.90;12.93;;;;;;;0.50;100.00;101077.19;2612962;36;20038;-55
2022/11/20 09:36:21;;;;;;;27.08;13.98;;;;;;;0.50;100.00;101069.25;2614012;36;20643;-55
2022/11/20 09:38:50;;;;;;;24.85;13.82;;;;;;;0.61;100.00;101069.66;2613139;36;20027;-57
2022/11/20 09:41:41;;;;;;;25.15;14.25;;;;;;;0.77;100.00;101071.66;2614082;31;20423;-57
2022/11/20 09:44:22;;;;;;;27.38;14.15;;;;;;;0.72;100.00;101076.28;2614633;36;20022;-57
2022/11/20 09:46:58;;;;;;;24.33;13.38;;;;;;;0.66;100.00;101070.34;2614771;36;20053;-57
2022/11/20 09:49:35;;;;;;;25.60;13.05;;;;;;;0.60;100.00;101078.53;2612732;36;20034;-56
2022/11/20 09:52:16;;;;;;;28.70;13.55;;;;;;;0.79;100.00;101067.97;2616048;36;20498;-58
2022/11/20 09:54:45;;;;;;;28.98;13.98;;;;;;;0.95;100.00;101068.16;2614115;36;20038;-57
2022/11/20 09:57:17;;;;;;;24.58;13.60;;;;;;;0.78;100.00;101054.81;2615418;36;20041;-56
2022/11/20 09:59:49;;;;;;;23.10;12.75;;;;;;;0.73;100.00;101054.16;2614524;36;20058;-57
2022/11/20 10:02:31;;;;;;;23.40;12.80;;;;;;;0.86;100.00;101044.72;2615173;31;20563;-57
2022/11/20 10:05:13;;;;;;;25.92;12.90;;;;;;;0.83;100.00;101043.06;2615908;36;20023;-56
2022/11/20 10:07:50;;;;;;;24.30;13.20;;;;;;;1.09;100.00;101045.47;2613686;36;20045;-60
2022/11/20 10:10:23;;;;;;;26.02;14.00;;;;;;;1.10;100.00;101042.75;2613654;36;20558;-54
2022/11/20 10:13:05;;;;;;;25.88;13.55;;;;;;;1.21;100.00;101032.50;2613821;36;20030;-57
2022/11/20 10:15:41;;;;;;;25.25;13.25;;;;;;;1.53;100.00;101045.16;2615751;36;20039;-57
2022/11/20 10:18:31;;;;;;;24.05;13.68;;;;;;;1.57;100.00;101039.63;2615418;36;20426;-58
2022/11/20 10:21:12;;;;;;;28.83;12.57;;;;;;;1.35;100.00;101042.44;2616550;36;20100;-54
2022/11/20 10:23:59;;;;;;;27.05;13.05;;;;;;;1.42;100.00;101034.22;2616592;36;20038;-57
2022/11/20 10:26:37;;;;;;;26.27;13.70;;;;;;;1.21;100.00;101021.06;2615558;36;20079;-57
2022/11/20 10:29:14;;;;;;;25.27;13.02;;;;;;;1.21;100.00;101031.66;2617053;36;20862;-57
2022/11/20 10:31:45;;;;;;;24.02;13.05;;;;;;;1.38;100.00;101026.44;2612845;36;20038;-56
2022/11/20 10:34:25;;;;;;;26.92;14.05;;;;;;;1.55;100.00;101030.06;2607857;36;20034;-56
2022/11/20 10:36:58;;;;;;;24.90;13.35;;;;;;;1.37;100.00;101024.69;2613853;36;20459;-57
2022/11/20 10:39:36;;;;;;;27.02;14.38;;;;;;;1.81;100.00;101004.03;2615023;36;20092;-54
2022/11/20 10:42:05;;;;;;;24.75;14.07;;;;;;;1.90;100.00;101009.75;2615560;36;20078;-56
2022/11/20 10:47:17;;;;;;;26.73;14.32;;;;;;;1.80;100.00;100999.69;2615864;36;19954;-56
2022/11/20 10:49:53;;;;;;;27.10;13.80;;;;;;;1.89;100.00;100996.56;2615894;36;20584;-57
2022/11/20 10:52:31;;;;;;;29.48;13.80;;;;;;;2.19;100.00;101003.88;2615619;36;20035;-57
2022/11/20 10:55:09;;;;;;;27.10;13.45;;;;;;;2.06;100.00;100993.91;2615567;36;20038;-59
2022/11/20 10:57:53;;;;;;;26.70;13.63;;;;;;;1.98;100.00;100972.19;2614058;36;20034;-59
2022/11/20 11:00:21;;;;;;;27.08;14.18;;;;;;;2.05;100.00;100962.97;2611616;36;20023;-57
2022/11/20 11:02:52;;;;;;;28.83;14.07;;;;;;;2.27;100.00;100975.16;2614605;36;20031;-53
2022/11/20 11:05:34;;;;;;;28.65;14.10;;;;;;;2.47;100.00;100970.59;2613202;36;20474;-58
2022/11/20 11:08:03;;;;;;;29.83;15.25;;;;;;;2.49;100.00;100972.22;2613839;36;20035;-58
2022/11/20 11:10:42;;;;;;;29.60;15.20;;;;;;;2.50;100.00;100963.28;2615374;36;20030;-57
2022/11/20 11:13:21;;;;;;;32.17;15.50;;;;;;;2.40;100.00;100965.59;2615732;36;20022;-55
2022/11/20 11:15:49;;;;;;;;;;;;;;;2.52;100.00;100953.47;2615012;36;20030;-55
2022/11/20 11:18:26;;;;;;;29.95;15.80;;;;;;;2.68;100.00;100942.88;2612678;36;19945;-58
2022/11/20 11:20:58;;;;;;;31.25;14.82;;;;;;;2.77;100.00;100946.84;2614677;36;20042;-58
2022/11/20 11:23:35;;;;;;;30.35;16.30;;;;;;;2.48;100.00;100951.91;2616171;36;20050;-58
2022/11/20 11:26:05;;;;;;;29.83;15.18;;;;;;;2.50;100.00;100951.81;2615099;36;20443;-59
2022/11/20 11:28:33;;;;;;;33.50;16.08;;;;;;;2.69;100.00;100957.84;2614184;36;20026;-58
2022/11/20 11:31:02;;;;;;;31.25;15.60;;;;;;;2.76;100.00;100945.09;2615914;36;20118;-54
2022/11/20 11:33:33;;;;;;;33.03;15.52;;;;;;;2.69;100.00;100939.25;2614366;36;20022;-54
2022/11/20 11:36:07;;;;;;;34.13;16.20;;;;;;;2.74;100.00;100934.56;2616434;31;20030;-56
2022/11/20 11:38:39;;;;;;;32.63;14.45;;;;;;;2.93;100.00;100931.75;2615062;36;20027;-57